Station Historical Data
Daily Summary for February 20, 2017 Units:  Metric    English   Both
« Previous Day
Next Day »
Daily Weekly Monthly Yearly Custom
  High: Low: Average:
Temperature: 8.1 °C -3.9 °C 1.4 °C
Dew Point: -0.4 °C -6.8 °C -4 °C
Humidity: 93% 37% 70%
Wind Speed: 14.5km/h 0km/h 4.5km/h
Wind Gust: 22.5km/h - -
Wind- - NE
Pressure: 1029 hPa 1021.2 hPa -
Precipitation: 0 mm    
Historical Graphs
 
 
Tabular Data for February 20, 2017
Time Temperature Dew Point Pressure Wind Wind Speed Wind Gust Humidity Rainfall Rate (Hourly)
00:04 -1.4 °C -2.7 °C 1021.2 hPa Calm     91% 0 mm
00:09 -1.6 °C -2.9 °C 1021.2 hPa Calm     91% 0 mm
00:14 -1.6 °C -2.7 °C 1021.2 hPa Calm     92% 0 mm
00:19 -1.7 °C -3 °C 1021.2 hPa Calm     91% 0 mm
00:24 -1.8 °C -3.1 °C 1021.2 hPa Calm     91% 0 mm
00:29 -1.8 °C -3.1 °C 1021.6 hPa Calm     91% 0 mm
00:34 -1.9 °C -3.2 °C 1021.6 hPa Calm     91% 0 mm
00:39 -1.9 °C -3.2 °C 1021.6 hPa Calm     91% 0 mm
00:44 -2 °C -3.3 °C 1021.6 hPa Calm     91% 0 mm
00:49 -2 °C -3.3 °C 1021.6 hPa Calm     91% 0 mm
00:54 -2.1 °C -3.3 °C 1021.9 hPa Calm     91% 0 mm
00:59 -2.2 °C -3.5 °C 1021.9 hPa Calm     91% 0 mm
01:04 -2.3 °C -3.6 °C 1022.2 hPa Calm     91% 0 mm
01:14 -2.4 °C -3.7 °C 1022.2 hPa Calm     91% 0 mm
01:19 -2.4 °C -3.7 °C 1021.9 hPa Calm     91% 0 mm
01:24 -2.4 °C -3.7 °C 1021.9 hPa Calm     91% 0 mm
01:29 -2.4 °C -3.7 °C 1021.9 hPa Calm     91% 0 mm
01:34 -2.4 °C -3.7 °C 1021.9 hPa Calm     91% 0 mm
01:39 -2.3 °C -3.4 °C 1022.2 hPa Calm     92% 0 mm
01:44 -2.3 °C -3.6 °C 1022.2 hPa Calm     91% 0 mm
01:49 -2.4 °C -3.7 °C 1022.2 hPa Calm     91% 0 mm
01:54 -2.4 °C -3.7 °C 1022.2 hPa Calm     91% 0 mm
01:59 -2.6 °C -3.8 °C 1022.2 hPa Calm     91% 0 mm
02:04 -2.7 °C -3.9 °C 1022.2 hPa Calm     91% 0 mm
02:09 -2.7 °C -3.9 °C 1022.6 hPa Calm     91% 0 mm
02:14 -2.7 °C -4 °C 1022.6 hPa Calm     91% 0 mm
02:19 -2.7 °C -4 °C 1022.6 hPa Calm     91% 0 mm
02:24 -2.8 °C -4.1 °C 1022.6 hPa Calm     91% 0 mm
02:29 -2.8 °C -4.1 °C 1022.6 hPa Calm     91% 0 mm
02:34 -2.8 °C -4.1 °C 1022.9 hPa Calm     91% 0 mm
02:39 -2.9 °C -4.2 °C 1022.9 hPa Calm     91% 0 mm
02:44 -2.8 °C -3.9 °C 1022.6 hPa Calm     92% 0 mm
02:49 -2.9 °C -4.2 °C 1022.9 hPa Calm     91% 0 mm
02:54 -2.9 °C -4.2 °C 1022.9 hPa Calm     91% 0 mm
02:59 -2.8 °C -3.9 °C 1022.9 hPa Calm     92% 0 mm
03:04 -2.7 °C -3.8 °C 1022.9 hPa Calm     92% 0 mm
03:09 -2.6 °C -3.7 °C 1022.9 hPa Calm     92% 0 mm
03:14 -2.5 °C -3.6 °C 1022.9 hPa Calm     92% 0 mm
03:19 -2.6 °C -3.7 °C 1022.9 hPa Calm     92% 0 mm
03:24 -2.8 °C -4.1 °C 1022.9 hPa Calm     91% 0 mm
03:29 -2.9 °C -4.2 °C 1023.2 hPa Calm     91% 0 mm
03:34 -3 °C -4.3 °C 1023.2 hPa Calm     91% 0 mm
03:39 -2.9 °C -4.2 °C 1023.2 hPa Calm     91% 0 mm
03:44 -3.1 °C -4.4 °C 1023.2 hPa Calm     91% 0 mm
03:49 -3.2 °C -4.4 °C 1023.2 hPa Calm     91% 0 mm
03:54 -3.2 °C -4.5 °C 1023.6 hPa Calm     91% 0 mm
03:59 -3.2 °C -4.3 °C 1023.6 hPa Calm     92% 0 mm
04:04 -3.3 °C -4.6 °C 1023.6 hPa Calm     91% 0 mm
04:09 -3.3 °C -4.4 °C 1023.6 hPa Calm     92% 0 mm
04:14 -3.1 °C -4.2 °C 1023.6 hPa Calm     92% 0 mm
04:19 -3 °C -4.1 °C 1023.9 hPa Calm     92% 0 mm
04:24 -3 °C -4.1 °C 1023.9 hPa Calm     92% 0 mm
04:29 -3.1 °C -4.2 °C 1023.9 hPa Calm     92% 0 mm
04:34 -3.1 °C -4.2 °C 1023.9 hPa Calm     92% 0 mm
04:39 -3.1 °C -4.4 °C 1024.3 hPa Calm     91% 0 mm
04:44 -3.2 °C -4.3 °C 1024.3 hPa Calm     92% 0 mm
04:49 -3.2 °C -4.5 °C 1024.3 hPa Calm     91% 0 mm
04:54 -3.3 °C -4.6 °C 1024.3 hPa Calm     91% 0 mm
04:59 -3.3 °C -4.6 °C 1024.6 hPa Calm     91% 0 mm
05:04 -3.3 °C -4.6 °C 1024.6 hPa Calm     91% 0 mm
05:09 -3.4 °C -4.7 °C 1024.9 hPa Calm     91% 0 mm
05:14 -3.4 °C -4.7 °C 1024.9 hPa Calm     91% 0 mm
05:19 -3.5 °C -4.8 °C 1025.3 hPa Calm     91% 0 mm
05:24 -3.6 °C -4.9 °C 1025.3 hPa Calm     91% 0 mm
05:29 -3.7 °C -4.9 °C 1025.3 hPa Calm     91% 0 mm
05:34 -3.7 °C -5 °C 1025.3 hPa Calm     91% 0 mm
05:39 -3.8 °C -5.1 °C 1025.3 hPa Calm     91% 0 mm
05:44 -3.9 °C -5.2 °C 1025.3 hPa Calm     91% 0 mm
05:49 -3.9 °C -5.2 °C 1025.3 hPa Calm     91% 0 mm
05:54 -3.8 °C -5.1 °C 1025.6 hPa Calm     91% 0 mm
05:59 -3.8 °C -5.1 °C 1025.6 hPa Calm     91% 0 mm
06:04 -3.8 °C -5.1 °C 1025.6 hPa Calm     91% 0 mm
06:09 -3.7 °C -5 °C 1025.6 hPa Calm     91% 0 mm
06:14 -3.8 °C -5.1 °C 1025.6 hPa Calm     91% 0 mm
06:19 -3.7 °C -5 °C 1025.6 hPa Calm     91% 0 mm
06:24 -3.7 °C -5 °C 1026 hPa Calm     91% 0 mm
06:29 -3.7 °C -5 °C 1026 hPa Calm     91% 0 mm
06:34 -3.8 °C -5.1 °C 1026 hPa Calm     91% 0 mm
06:39 -3.6 °C -4.8 °C 1026 hPa Calm     91% 0 mm
06:44 -3.6 °C -4.8 °C 1026 hPa Calm     91% 0 mm
06:49 -3.6 °C -4.9 °C 1026.3 hPa Calm     91% 0 mm
06:54 -3.7 °C -4.9 °C 1026.3 hPa Calm     91% 0 mm
06:59 -3.4 °C -4.6 °C 1026.3 hPa Calm     92% 0 mm
07:04 -2.6 °C -3.6 °C 1026.3 hPa Calm   4.8 km/h 93% 0 mm
07:09 -1.8 °C -2.8 °C 1026.6 hPa ENE 1.6 km/h 4.8 km/h 93% 0 mm
07:14 -1.3 °C -2.3 °C 1026.6 hPa ENE 1.6 km/h 6.4 km/h 93% 0 mm
07:19 -1.1 °C -2.2 °C 1026.6 hPa NE 1.6 km/h 6.4 km/h 92% 0 mm
07:24 -0.9 °C -2.1 °C 1026.6 hPa NE 1.6 km/h 4.8 km/h 92% 0 mm
07:29 -0.9 °C -2.1 °C 1026.6 hPa NE 1.6 km/h 4.8 km/h 92% 0 mm
07:34 -0.9 °C -2 °C 1027 hPa NE 3.2 km/h 3.2 km/h 92% 0 mm
07:39 -0.6 °C -1.7 °C 1026.6 hPa NE 3.2 km/h 4.8 km/h 92% 0 mm
07:44 -0.4 °C -1.6 °C 1027 hPa Calm   6.4 km/h 92% 0 mm
07:49 -0.4 °C -1.6 °C 1027 hPa NE 3.2 km/h 8 km/h 92% 0 mm
07:54 -0.2 °C -1.4 °C 1027 hPa NE 3.2 km/h 8 km/h 92% 0 mm
07:59 -0.2 °C -1.3 °C 1027 hPa NE 4.8 km/h 6.4 km/h 92% 0 mm
08:04 0 °C -1.3 °C 1027.3 hPa East 3.2 km/h 11.3 km/h 91% 0 mm
08:09 0.2 °C -1.1 °C 1027.7 hPa ENE 4.8 km/h 8 km/h 91% 0 mm
08:14 0.3 °C -1.2 °C 1027.7 hPa NE 1.6 km/h 8 km/h 90% 0 mm
08:19 0.4 °C -1.2 °C 1027.7 hPa NE 4.8 km/h 11.3 km/h 89% 0 mm
08:24 0.6 °C -1 °C 1027.7 hPa NE 4.8 km/h 14.5 km/h 89% 0 mm
08:29 0.8 °C -1.1 °C 1027.7 hPa NE 4.8 km/h 14.5 km/h 87% 0 mm
08:34 1.1 °C -1 °C 1027.7 hPa NE 6.4 km/h 11.3 km/h 86% 0 mm
08:39 1.2 °C -1.2 °C 1027.7 hPa ENE 6.4 km/h 14.5 km/h 84% 0 mm
08:44 1.4 °C -1.1 °C 1027.7 hPa East 3.2 km/h 12.9 km/h 83% 0 mm
08:49 1.6 °C -1.1 °C 1028 hPa NE 12.9 km/h 16.1 km/h 82% 0 mm
08:54 1.6 °C -1.3 °C 1028 hPa NE 8 km/h 17.7 km/h 81% 0 mm
08:59 1.7 °C -1.3 °C 1028 hPa NE 9.7 km/h 17.7 km/h 80% 0 mm
09:04 1.9 °C -1.2 °C 1028.7 hPa NNE 6.4 km/h 12.9 km/h 80% 0 mm
09:09 2.1 °C -1.2 °C 1028.3 hPa East 4.8 km/h 14.5 km/h 79% 0 mm
09:14 2.1 °C -1.4 °C 1028.3 hPa NNE 14.5 km/h 17.7 km/h 78% 0 mm
09:19 2.1 °C -1.3 °C 1028 hPa ENE 4.8 km/h 17.7 km/h 78% 0 mm
09:24 2.3 °C -1.2 °C 1028 hPa ENE 11.3 km/h 17.7 km/h 78% 0 mm
09:29 2.2 °C -1.4 °C 1028.3 hPa NE 9.7 km/h 19.3 km/h 77% 0 mm
09:34 2.4 °C -1.2 °C 1028 hPa NE 9.7 km/h 19.3 km/h 77% 0 mm
09:39 2.6 °C -1 °C 1028 hPa NE 8 km/h 16.1 km/h 77% 0 mm
09:44 2.6 °C -1.1 °C 1028 hPa NE 8 km/h 14.5 km/h 77% 0 mm
09:49 2.7 °C -0.9 °C 1028 hPa ENE 4.8 km/h 14.5 km/h 77% 0 mm
09:54 2.9 °C -0.9 °C 1028.3 hPa ENE 6.4 km/h 16.1 km/h 76% 0 mm
09:59 3 °C -0.8 °C 1028.3 hPa NE 11.3 km/h 14.5 km/h 76% 0 mm
10:04 3.2 °C -0.7 °C 1028.3 hPa NE 8 km/h 14.5 km/h 76% 0 mm
10:09 3.2 °C -0.8 °C 1028 hPa NNE 6.4 km/h 11.3 km/h 75% 0 mm
10:14 3.2 °C -0.8 °C 1028 hPa NNE 4.8 km/h 14.5 km/h 75% 0 mm
10:19 3.6 °C -0.7 °C 1028 hPa NE 8 km/h 16.1 km/h 74% 0 mm
10:24 3.4 °C -0.6 °C 1028.3 hPa ENE 3.2 km/h 14.5 km/h 75% 0 mm
10:29 3.6 °C -0.6 °C 1028.3 hPa ENE 4.8 km/h 12.9 km/h 74% 0 mm
10:34 3.8 °C -0.4 °C 1028.3 hPa NE 6.4 km/h 12.9 km/h 74% 0 mm
10:39 3.6 °C -0.8 °C 1028.3 hPa NE 6.4 km/h 12.9 km/h 73% 0 mm
10:44 3.8 °C -0.4 °C 1028.7 hPa NE 6.4 km/h 12.9 km/h 74% 0 mm
10:49 3.9 °C -0.5 °C 1029 hPa NE 4.8 km/h 11.3 km/h 73% 0 mm
10:54 4.2 °C -0.4 °C 1029 hPa NNE 4.8 km/h 11.3 km/h 72% 0 mm
10:59 4.2 °C -0.8 °C 1029 hPa NNE 6.4 km/h 11.3 km/h 70% 0 mm
11:04 4.2 °C -0.8 °C 1028.7 hPa NE 3.2 km/h 8 km/h 70% 0 mm
11:09 4.4 °C -0.6 °C 1029 hPa NNE 4.8 km/h 9.7 km/h 70% 0 mm
11:14 4.4 °C -0.6 °C 1028.7 hPa NNE 4.8 km/h 9.7 km/h 70% 0 mm
11:19 4.6 °C -0.6 °C 1028.7 hPa ENE 6.4 km/h 9.7 km/h 69% 0 mm
11:24 4.5 °C -0.7 °C 1028.7 hPa NNE 3.2 km/h 14.5 km/h 69% 0 mm
11:29 4.7 °C -1.6 °C 1028.7 hPa ENE 6.4 km/h 14.5 km/h 64% 0 mm
11:34 4.6 °C -1.1 °C 1028.7 hPa NE 4.8 km/h 11.3 km/h 67% 0 mm
11:39 4.6 °C -1.3 °C 1028.7 hPa NNW 3.2 km/h 11.3 km/h 66% 0 mm
11:49 4.7 °C -1.3 °C 1028.3 hPa NNE 4.8 km/h 9.7 km/h 65% 0 mm
11:54 5.2 °C -0.7 °C 1028.3 hPa NE 6.4 km/h 14.5 km/h 66% 0 mm
11:59 5.2 °C -0.7 °C 1028.3 hPa NE 6.4 km/h 14.5 km/h 66% 0 mm
12:04 5.2 °C -1.7 °C 1028.3 hPa NE 4.8 km/h 12.9 km/h 61% 0 mm
12:09 5.4 °C -1.7 °C 1028.3 hPa East 3.2 km/h 11.3 km/h 60% 0 mm
12:14 5.6 °C -0.9 °C 1028.3 hPa NE 4.8 km/h 11.3 km/h 63% 0 mm
12:19 5.7 °C -2.4 °C 1028 hPa NE 6.4 km/h 14.5 km/h 56% 0 mm
12:24 6.1 °C -1.1 °C 1028 hPa ENE 3.2 km/h 11.3 km/h 60% 0 mm
12:29 6.1 °C -2.3 °C 1028 hPa NNE 9.7 km/h 9.7 km/h 55% 0 mm
12:34 5.6 °C -3.7 °C 1027.7 hPa NNE 4.8 km/h 12.9 km/h 51% 0 mm
12:39 6.3 °C -2.1 °C 1027.7 hPa East 3.2 km/h 12.9 km/h 55% 0 mm
12:44 6.9 °C -2.1 °C 1027.3 hPa NE 4.8 km/h 12.9 km/h 53% 0 mm
12:49 6.3 °C -2.6 °C 1027.3 hPa NE 6.4 km/h 17.7 km/h 53% 0 mm
12:54 6.5 °C -3.4 °C 1027.3 hPa NE 8 km/h 17.7 km/h 49% 0 mm
12:59 6.3 °C -3.4 °C 1027.3 hPa NE 8 km/h 19.3 km/h 50% 0 mm
13:04 6 °C -3.7 °C 1027 hPa NE 6.4 km/h 19.3 km/h 50% 0 mm
13:09 6.6 °C -2.3 °C 1027.3 hPa NE 8 km/h 14.5 km/h 53% 0 mm
13:14 6.4 °C -3.6 °C 1027.3 hPa NE 9.7 km/h 14.5 km/h 49% 0 mm
13:19 6.5 °C -3.4 °C 1027.3 hPa NE 8 km/h 20.9 km/h 49% 0 mm
13:24 6.5 °C -4 °C 1027.3 hPa NE 8 km/h 12.9 km/h 47% 0 mm
13:29 6.9 °C -3.9 °C 1027.3 hPa NE 8 km/h 8 km/h 46% 0 mm
13:34 6.8 °C -4.1 °C 1027.3 hPa NE 6.4 km/h 12.9 km/h 46% 0 mm
13:39 6.7 °C -4.4 °C 1027.3 hPa ENE 3.2 km/h 14.5 km/h 45% 0 mm
13:44 7.4 °C -3.2 °C 1027.3 hPa NNE 3.2 km/h 11.3 km/h 47% 0 mm
13:49 7.1 °C -4.7 °C 1027.3 hPa NNE 6.4 km/h 12.9 km/h 43% 0 mm
13:54 7.2 °C -4 °C 1027.7 hPa NE 6.4 km/h 12.9 km/h 45% 0 mm
13:59 6.9 °C -4.8 °C 1027.3 hPa NNE 4.8 km/h 12.9 km/h 43% 0 mm
14:04 7.5 °C -3.7 °C 1027.3 hPa NNE 4.8 km/h 12.9 km/h 45% 0 mm
14:09 7.3 °C -4.8 °C 1027.3 hPa NE 6.4 km/h 14.5 km/h 42% 0 mm
14:14 7.3 °C -5.1 °C 1027.3 hPa ENE 6.4 km/h 14.5 km/h 41% 0 mm
14:19 7.2 °C -4.8 °C 1027.3 hPa NE 6.4 km/h 11.3 km/h 42% 0 mm
14:24 6.9 °C -4.5 °C 1027.3 hPa NE 6.4 km/h 9.7 km/h 44% 0 mm
14:29 7.2 °C -5.2 °C 1027.3 hPa NNE 6.4 km/h 12.9 km/h 41% 0 mm
14:34 7.6 °C -4.5 °C 1027.3 hPa ENE 4.8 km/h 12.9 km/h 42% 0 mm
14:39 7.8 °C -4.3 °C 1027.3 hPa NE 6.4 km/h 14.5 km/h 42% 0 mm
14:44 7.8 °C -4.3 °C 1027.3 hPa ESE 8 km/h 11.3 km/h 42% 0 mm
14:49 8.1 °C -5.1 °C 1027.3 hPa NE 6.4 km/h 14.5 km/h 39% 0 mm
14:54 7.8 °C -6 °C 1027.3 hPa NE 8 km/h 16.1 km/h 37% 0 mm
14:59 7.8 °C -6 °C 1027.3 hPa NE 6.4 km/h 16.1 km/h 37% 0 mm
15:04 7.7 °C -6.1 °C 1027.3 hPa NE 6.4 km/h 14.5 km/h 37% 0 mm
15:09 7.7 °C -5.4 °C 1027.3 hPa NE 6.4 km/h 14.5 km/h 39% 0 mm
15:14 7.5 °C -5.3 °C 1027.3 hPa ENE 4.8 km/h 12.9 km/h 40% 0 mm
15:19 7.8 °C -5.3 °C 1027.3 hPa NNE 4.8 km/h 9.7 km/h 39% 0 mm
15:24 7.9 °C -5.2 °C 1027.3 hPa NE 4.8 km/h 11.3 km/h 39% 0 mm
15:29 7.8 °C -5.7 °C 1027.3 hPa NNE 3.2 km/h 11.3 km/h 38% 0 mm
15:34 8 °C -5.5 °C 1027.3 hPa NE 3.2 km/h 9.7 km/h 38% 0 mm
15:39 7.9 °C -4.9 °C 1027.3 hPa ENE 3.2 km/h 11.3 km/h 40% 0 mm
15:44 7.8 °C -5.3 °C 1027.3 hPa NE 9.7 km/h 12.9 km/h 39% 0 mm
15:49 7.8 °C -5.7 °C 1027.3 hPa NNE 3.2 km/h 14.5 km/h 38% 0 mm
15:54 7.8 °C -5.3 °C 1027.3 hPa NE 3.2 km/h 14.5 km/h 39% 0 mm
15:59 7.8 °C -5 °C 1027.3 hPa NE 6.4 km/h 14.5 km/h 40% 0 mm
16:04 7.7 °C -6.1 °C 1027.3 hPa ENE 4.8 km/h 12.9 km/h 37% 0 mm
16:09 7.4 °C -6 °C 1027.3 hPa ENE 6.4 km/h 16.1 km/h 38% 0 mm
16:14 7.4 °C -6.4 °C 1027.3 hPa East 12.9 km/h 12.9 km/h 37% 0 mm
16:19 7.3 °C -6.1 °C 1027.7 hPa NE 8 km/h 12.9 km/h 38% 0 mm
16:24 7.4 °C -5.7 °C 1027.7 hPa ESE 12.9 km/h 14.5 km/h 39% 0 mm
16:29 7.4 °C -5.3 °C 1027.7 hPa ENE 6.4 km/h 14.5 km/h 40% 0 mm
16:34 7.2 °C -5.2 °C 1027.3 hPa NE 6.4 km/h 14.5 km/h 41% 0 mm
16:39 6.9 °C -5.4 °C 1027.3 hPa NE 8 km/h 17.7 km/h 41% 0 mm
16:44 6.7 °C -5 °C 1027.3 hPa NNE 4.8 km/h 16.1 km/h 43% 0 mm
16:49 6.7 °C -5.1 °C 1027.3 hPa ENE 12.9 km/h 14.5 km/h 43% 0 mm
16:54 6.6 °C -4.8 °C 1027.3 hPa NNE 8 km/h 14.5 km/h 44% 0 mm
16:59 6.4 °C -4.7 °C 1027.3 hPa NE 8 km/h 14.5 km/h 45% 0 mm
17:04 6.2 °C -4.6 °C 1027.3 hPa NE 8 km/h 17.7 km/h 46% 0 mm
17:09 6 °C -4.5 °C 1027.3 hPa NE 9.7 km/h 17.7 km/h 47% 0 mm
17:14 5.7 °C -4.2 °C 1027.3 hPa NE 6.4 km/h 16.1 km/h 49% 0 mm
17:19 5.4 °C -4.2 °C 1027.3 hPa NE 6.4 km/h 16.1 km/h 50% 0 mm
17:24 5.2 °C -4.1 °C 1027.3 hPa ENE 14.5 km/h 16.1 km/h 51% 0 mm
17:29 4.9 °C -4.4 °C 1027.3 hPa NE 9.7 km/h 17.7 km/h 51% 0 mm
17:34 4.6 °C -4.4 °C 1027.3 hPa NE 9.7 km/h 17.7 km/h 52% 0 mm
17:39 4.3 °C -4.4 °C 1027.3 hPa NE 9.7 km/h 22.5 km/h 53% 0 mm
17:44 4.1 °C -4.7 °C 1027.3 hPa NE 14.5 km/h 22.5 km/h 53% 0 mm
17:49 3.8 °C -4.9 °C 1027.3 hPa NE 9.7 km/h 19.3 km/h 53% 0 mm
17:54 3.6 °C -4.8 °C 1027.3 hPa NE 4.8 km/h 19.3 km/h 54% 0 mm
17:59 3.3 °C -4.8 °C 1027.3 hPa NE 3.2 km/h 12.9 km/h 55% 0 mm
18:04 3.2 °C -5 °C 1027.3 hPa NE 6.4 km/h 16.1 km/h 55% 0 mm
18:09 3.1 °C -4.9 °C 1027.3 hPa NE 6.4 km/h 16.1 km/h 56% 0 mm
18:14 2.9 °C -5 °C 1027.3 hPa NNE 8 km/h 17.7 km/h 56% 0 mm
18:19 2.8 °C -5.1 °C 1027.3 hPa NE 4.8 km/h 19.3 km/h 56% 0 mm
18:24 2.7 °C -5 °C 1027.3 hPa NE 4.8 km/h 12.9 km/h 57% 0 mm
18:29 2.5 °C -4.9 °C 1027.3 hPa NE 8 km/h 14.5 km/h 58% 0 mm
18:34 2.4 °C -5 °C 1027.3 hPa NE 8 km/h 14.5 km/h 58% 0 mm
18:39 2.2 °C -5 °C 1027.3 hPa NE 6.4 km/h 12.9 km/h 59% 0 mm
18:44 2.1 °C -5.1 °C 1027.3 hPa NE 8 km/h 12.9 km/h 59% 0 mm
18:49 2.1 °C -4.9 °C 1027.3 hPa NNE 3.2 km/h 12.9 km/h 60% 0 mm
18:54 2 °C -4.9 °C 1027.3 hPa NE 14.5 km/h 20.9 km/h 60% 0 mm
18:59 1.8 °C -4.9 °C 1027.3 hPa NE 8 km/h 20.9 km/h 61% 0 mm
19:04 1.8 °C -4.9 °C 1027.7 hPa NE 8 km/h 16.1 km/h 61% 0 mm
19:09 1.7 °C -5 °C 1027.7 hPa NE 6.4 km/h 17.7 km/h 61% 0 mm
19:14 1.6 °C -4.9 °C 1027.3 hPa ENE 6.4 km/h 14.5 km/h 62% 0 mm
19:19 1.6 °C -5.1 °C 1027.3 hPa NE 12.9 km/h 14.5 km/h 61% 0 mm
19:24 1.4 °C -5.3 °C 1027.3 hPa NE 11.3 km/h 16.1 km/h 61% 0 mm
19:29 1.4 °C -5.3 °C 1027.3 hPa NE 9.7 km/h 22.5 km/h 61% 0 mm
19:34 1.3 °C -5.4 °C 1027.3 hPa NE 11.3 km/h 22.5 km/h 61% 0 mm
19:39 1.2 °C -5.5 °C 1027.3 hPa NNE 8 km/h 16.1 km/h 61% 0 mm
19:44 1.1 °C -5.6 °C 1027.3 hPa NNE 11.3 km/h 19.3 km/h 61% 0 mm
19:49 1.1 °C -5.4 °C 1027.3 hPa ENE 4.8 km/h 16.1 km/h 62% 0 mm
19:54 0.9 °C -5.5 °C 1027.3 hPa NE 8 km/h 16.1 km/h 62% 0 mm
19:59 0.9 °C -5.4 °C 1027.3 hPa ENE 8 km/h 16.1 km/h 63% 0 mm
20:04 0.8 °C -5.4 °C 1027.7 hPa NE 8 km/h 14.5 km/h 63% 0 mm
20:09 0.7 °C -5.3 °C 1027.3 hPa NE 6.4 km/h 12.9 km/h 64% 0 mm
20:14 0.7 °C -5.4 °C 1027.3 hPa ENE 6.4 km/h 12.9 km/h 64% 0 mm
20:19 0.6 °C -5.2 °C 1027.3 hPa ENE 8 km/h 12.9 km/h 65% 0 mm
20:24 0.6 °C -5.3 °C 1027.3 hPa NE 9.7 km/h 16.1 km/h 65% 0 mm
20:29 0.6 °C -5.3 °C 1027.3 hPa ENE 8 km/h 16.1 km/h 65% 0 mm
20:34 0.5 °C -5.1 °C 1027.7 hPa NE 6.4 km/h 12.9 km/h 66% 0 mm
20:39 0.4 °C -5.2 °C 1027.7 hPa NE 3.2 km/h 11.3 km/h 66% 0 mm
20:44 0.3 °C -5.1 °C 1027.7 hPa ENE 3.2 km/h 14.5 km/h 67% 0 mm
20:49 0.3 °C -5.1 °C 1027.7 hPa ENE 11.3 km/h 12.9 km/h 67% 0 mm
20:54 0.2 °C -5.2 °C 1027.7 hPa East 9.7 km/h 14.5 km/h 67% 0 mm
20:59 0.2 °C -5.1 °C 1027.7 hPa ENE 6.4 km/h 14.5 km/h 68% 0 mm
21:04 0.1 °C -5.1 °C 1027.7 hPa ENE 6.4 km/h 14.5 km/h 68% 0 mm
21:09 0.1 °C -5.3 °C 1027.7 hPa ENE 6.4 km/h 16.1 km/h 67% 0 mm
21:14 0.1 °C -5.6 °C 1027.3 hPa ENE 8 km/h 16.1 km/h 66% 0 mm
21:19 0 °C -5.6 °C 1027.3 hPa ENE 8 km/h 14.5 km/h 66% 0 mm
21:24 -0.1 °C -5.7 °C 1027.3 hPa ENE 6.4 km/h 12.9 km/h 66% 0 mm
21:29 -0.1 °C -5.7 °C 1027.3 hPa ENE 8 km/h 12.9 km/h 66% 0 mm
21:34 -0.2 °C -5.8 °C 1027.3 hPa ENE 6.4 km/h 16.1 km/h 66% 0 mm
21:39 -0.2 °C -5.8 °C 1027 hPa NE 8 km/h 14.5 km/h 66% 0 mm
21:44 -0.2 °C -6 °C 1027.3 hPa ESE 6.4 km/h 19.3 km/h 65% 0 mm
21:49 -0.3 °C -6.1 °C 1027 hPa ENE 4.8 km/h 16.1 km/h 65% 0 mm
21:54 -0.3 °C -6.1 °C 1027 hPa East 8 km/h 16.1 km/h 65% 0 mm
21:59 -0.4 °C -6.4 °C 1027 hPa ENE 1.6 km/h 12.9 km/h 64% 0 mm
22:04 -0.4 °C -6.4 °C 1026.6 hPa ENE 6.4 km/h 14.5 km/h 64% 0 mm
22:09 -0.5 °C -6.5 °C 1026.6 hPa ENE 8 km/h 17.7 km/h 64% 0 mm
22:14 -0.5 °C -6.7 °C 1026.3 hPa ENE 9.7 km/h 19.3 km/h 63% 0 mm
22:19 -0.6 °C -6.7 °C 1026.3 hPa East 9.7 km/h 17.7 km/h 63% 0 mm
22:24 -0.7 °C -6.8 °C 1026.3 hPa East 4.8 km/h 14.5 km/h 63% 0 mm
22:29 -0.7 °C -6.7 °C 1026.3 hPa ENE 8 km/h 16.1 km/h 64% 0 mm
22:34 -0.7 °C -6.7 °C 1026 hPa ENE 8 km/h 20.9 km/h 64% 0 mm
22:39 -0.7 °C -6.7 °C 1026 hPa ENE 6.4 km/h 20.9 km/h 64% 0 mm
22:44 -0.7 °C -6.7 °C 1026 hPa ENE 4.8 km/h 16.1 km/h 64% 0 mm
22:49 -0.7 °C -6.7 °C 1025.6 hPa East 8 km/h 17.7 km/h 64% 0 mm
22:54 -0.8 °C -6.6 °C 1026 hPa ESE 3.2 km/h 14.5 km/h 65% 0 mm
22:59 -0.7 °C -6.5 °C 1025.6 hPa ENE 3.2 km/h 14.5 km/h 65% 0 mm
23:04 -0.7 °C -6.5 °C 1025.6 hPa ENE 4.8 km/h 14.5 km/h 65% 0 mm
23:09 -0.7 °C -6.4 °C 1025.6 hPa ENE 4.8 km/h 11.3 km/h 65% 0 mm
23:14 -0.7 °C -6.4 °C 1025.6 hPa ENE 6.4 km/h 11.3 km/h 65% 0 mm
23:19 -0.6 °C -6.4 °C 1025.3 hPa East 3.2 km/h 11.3 km/h 65% 0 mm
23:24 -0.6 °C -6.4 °C 1025.6 hPa ENE 3.2 km/h 11.3 km/h 65% 0 mm
23:29 -0.7 °C -6.4 °C 1025.3 hPa NE 4.8 km/h 8 km/h 65% 0 mm
23:34 -0.7 °C -6.4 °C 1024.9 hPa ENE 4.8 km/h 11.3 km/h 65% 0 mm
23:39 -0.7 °C -6.7 °C 1024.9 hPa ENE 6.4 km/h 11.3 km/h 64% 0 mm
23:44 -0.7 °C -6.7 °C 1024.6 hPa NE 3.2 km/h 14.5 km/h 64% 0 mm
23:49 -0.7 °C -6.7 °C 1024.6 hPa ENE 3.2 km/h 17.7 km/h 64% 0 mm
23:54 -0.7 °C -6.8 °C 1024.3 hPa ENE 4.8 km/h 12.9 km/h 63% 0 mm
23:59 -0.7 °C -6.8 °C 1024.3 hPa NE 4.8 km/h 12.9 km/h 63% 0 mm
Buffalo, New York, USA
Compliments of Weather Underground - 2.5 mb